Time;durP1;ratioP1;P1;durP2;ratioP2;P2;SDS_P1;SDS_P2;PMS_P1;PMS_P2;Temp;Humidity;BMP_temperature;BMP_pressure;BME280_temperature;BME280_humidity;BME280_pressure;Samples;Min_cycle;Max_cycle;Signal;HPM_P1;HPM_P2
2021/01/29 00:00:44;;;;;;;77.63;32.37;;;5.60;96.80;;;;;;4419662;32;20167;-62
2021/01/29 00:03:13;;;;;;;69.43;30.90;;;5.60;96.80;;;;;;4419612;32;20228;-64
2021/01/29 00:05:42;;;;;;;62.60;28.20;;;5.60;96.80;;;;;;4420657;32;20633;-67
2021/01/29 00:08:09;;;;;;;58.47;29.37;;;5.60;96.80;;;;;;4420775;32;20183;-65
2021/01/29 00:10:36;;;;;;;98.40;38.13;;;5.60;96.80;;;;;;4419830;32;20209;-66
2021/01/29 00:13:05;;;;;;;69.23;31.20;;;5.70;96.90;;;;;;4419925;32;20223;-65
2021/01/29 00:15:31;;;;;;;67.53;31.00;;;5.60;96.90;;;;;;4420290;32;20264;-67
2021/01/29 00:17:59;;;;;;;61.30;29.30;;;5.70;96.90;;;;;;4417341;32;20240;-64
2021/01/29 00:20:27;;;;;;;61.57;28.80;;;5.70;96.90;;;;;;4414565;32;20215;-65
2021/01/29 00:22:54;;;;;;;84.37;33.50;;;5.70;96.90;;;;;;4418648;32;20223;-65
2021/01/29 00:25:24;;;;;;;73.07;31.87;;;5.70;96.90;;;;;;4418948;32;20160;-64
2021/01/29 00:27:51;;;;;;;60.10;29.13;;;5.70;97.00;;;;;;4418766;32;20183;-64
2021/01/29 00:30:19;;;;;;;64.07;29.83;;;5.70;97.00;;;;;;4421181;32;20184;-64
2021/01/29 00:32:46;;;;;;;77.73;33.77;;;5.70;97.00;;;;;;4421228;32;20159;-63
2021/01/29 00:35:15;;;;;;;61.23;29.50;;;5.80;97.00;;;;;;4420054;32;20174;-66
2021/01/29 00:37:41;;;;;;;79.67;32.83;;;5.80;97.00;;;;;;4419764;32;20223;-63
2021/01/29 00:40:09;;;;;;;62.70;29.27;;;5.80;97.00;;;;;;4419983;32;20250;-63
2021/01/29 00:42:35;;;;;;;70.50;30.23;;;5.80;96.90;;;;;;4418858;32;20198;-62
2021/01/29 00:45:02;;;;;;;71.07;29.57;;;5.80;97.00;;;;;;4420122;32;20565;-64
2021/01/29 00:47:30;;;;;;;57.60;28.07;;;5.80;97.00;;;;;;4418349;32;20187;-65
2021/01/29 00:49:57;;;;;;;67.37;28.97;;;5.80;97.00;;;;;;4416956;32;20230;-65
2021/01/29 00:52:24;;;;;;;55.73;26.63;;;5.90;97.00;;;;;;4416778;32;20598;-68
2021/01/29 00:54:50;;;;;;;56.97;28.27;;;5.90;97.00;;;;;;4415694;32;20686;-65
2021/01/29 00:57:21;;;;;;;73.90;31.43;;;5.90;97.00;;;;;;4420172;32;20207;-64
2021/01/29 00:59:48;;;;;;;59.70;28.07;;;5.90;97.00;;;;;;4419898;32;20163;-65
2021/01/29 01:02:14;;;;;;;59.77;28.03;;;5.90;97.00;;;;;;4412438;32;20182;-64
2021/01/29 01:04:40;;;;;;;54.70;27.30;;;5.90;97.10;;;;;;4420761;32;20170;-63
2021/01/29 01:07:10;;;;;;;55.83;27.73;;;6.00;97.00;;;;;;4422124;32;20171;-63
2021/01/29 01:09:37;;;;;;;56.87;26.67;;;6.00;96.90;;;;;;4418948;32;20163;-64
2021/01/29 01:12:22;;;;;;;53.60;25.50;;;6.00;96.90;;;;;;4415084;32;20602;-64
2021/01/29 01:14:49;;;;;;;60.73;27.03;;;6.00;96.90;;;;;;4418013;32;20163;-65
2021/01/29 01:17:15;;;;;;;56.20;27.73;;;6.10;97.00;;;;;;4419345;32;20600;-65
2021/01/29 01:19:42;;;;;;;57.87;27.77;;;6.10;97.00;;;;;;4415100;32;20336;-65
2021/01/29 01:22:08;;;;;;;50.07;25.13;;;6.10;97.00;;;;;;4420615;32;20179;-63
2021/01/29 01:24:39;;;;;;;51.07;25.37;;;6.10;96.90;;;;;;4419136;32;20536;-66
2021/01/29 01:27:07;;;;;;;64.27;29.30;;;6.20;97.00;;;;;;4420328;32;20231;-66
2021/01/29 01:29:34;;;;;;;57.30;26.13;;;6.20;97.00;;;;;;4419181;32;20148;-63
2021/01/29 01:32:01;;;;;;;55.57;27.20;;;6.20;97.00;;;;;;4419621;32;20690;-67
2021/01/29 01:34:27;;;;;;;59.87;27.73;;;6.20;97.00;;;;;;4412060;32;20257;-66
2021/01/29 01:36:54;;;;;;;73.13;29.30;;;6.20;97.00;;;;;;4416588;32;20207;-64
2021/01/29 01:39:22;;;;;;;50.20;25.00;;;6.20;97.00;;;;;;4416175;32;20206;-63
2021/01/29 01:41:50;;;;;;;54.60;26.27;;;6.30;97.00;;;;;;4410676;32;20183;-66
2021/01/29 01:44:42;;;;;;;53.07;26.27;;;6.30;97.00;;;;;;4417531;32;20204;-63
2021/01/29 01:47:21;;;;;;;42.47;22.60;;;6.40;97.00;;;;;;4375823;32;20247;-65
2021/01/29 01:49:48;;;;;;;44.20;22.90;;;6.40;97.10;;;;;;4382062;32;20233;-65
2021/01/29 01:52:23;;;;;;;46.30;22.10;;;6.40;97.10;;;;;;4376445;32;20176;-65
2021/01/29 01:54:54;;;;;;;47.47;23.50;;;6.40;97.10;;;;;;4393778;32;20297;-64
2021/01/29 01:57:23;;;;;;;55.00;25.80;;;6.40;97.10;;;;;;4385245;32;20223;-65
2021/01/29 01:59:54;;;;;;;37.17;20.20;;;6.40;97.10;;;;;;4389000;32;20192;-64
2021/01/29 02:02:24;;;;;;;40.77;21.53;;;6.50;97.10;;;;;;4378618;32;20659;-63
2021/01/29 02:04:52;;;;;;;35.40;19.70;;;6.50;97.10;;;;;;4400511;32;20171;-64
2021/01/29 02:07:29;;;;;;;45.17;21.73;;;6.50;97.00;;;;;;4413567;32;20243;-63
2021/01/29 02:09:58;;;;;;;37.93;21.27;;;6.50;97.00;;;;;;4412327;32;20229;-64
2021/01/29 02:12:25;;;;;;;52.40;24.23;;;6.50;97.10;;;;;;4419655;32;20237;-64
2021/01/29 02:14:52;;;;;;;38.27;19.73;;;6.50;97.10;;;;;;4415474;32;20210;-63
2021/01/29 02:17:36;;;;;;;32.67;18.73;;;6.60;97.10;;;;;;4419912;32;20620;-64
2021/01/29 02:20:46;;;;;;;37.90;20.00;;;6.60;97.10;;;;;;4416125;32;20202;-63
2021/01/29 02:23:56;;;;;;;38.13;19.40;;;6.70;97.20;;;;;;4415154;32;20255;-64
2021/01/29 02:26:59;;;;;;;30.67;18.33;;;6.70;97.20;;;;;;4357841;33;20235;-63
2021/01/29 02:29:39;;;;;;;31.60;17.77;;;6.70;97.10;;;;;;4309060;33;20186;-63
2021/01/29 02:32:54;;;;;;;31.47;17.43;;;6.70;97.10;;;;;;4314357;33;20613;-63
2021/01/29 02:35:57;;;;;;;35.63;19.07;;;6.80;97.10;;;;;;4263659;33;20186;-63
2021/01/29 02:38:53;;;;;;;33.53;19.47;;;6.80;97.10;;;;;;4269275;33;20581;-63
2021/01/29 02:41:30;;;;;;;38.30;19.77;;;6.80;97.10;;;;;;4270166;33;20224;-63
2021/01/29 02:44:19;;;;;;;37.23;19.73;;;6.80;97.10;;;;;;4270052;33;20186;-63
2021/01/29 02:46:51;;;;;;;32.73;18.90;;;6.90;97.10;;;;;;4270045;33;20712;-64
2021/01/29 02:49:24;;;;;;;35.93;20.77;;;6.80;97.10;;;;;;4264648;33;20306;-63
2021/01/29 02:51:58;;;;;;;32.27;19.07;;;6.90;97.10;;;;;;4268752;33;20725;-64
2021/01/29 02:54:35;;;;;;;37.93;19.00;;;6.90;97.10;;;;;;4268648;33;20199;-64
2021/01/29 02:57:07;;;;;;;38.10;20.50;;;6.90;97.20;;;;;;4270355;33;20189;-63
2021/01/29 02:59:37;;;;;;;50.60;23.63;;;6.90;97.20;;;;;;4267284;33;20225;-63
2021/01/29 03:02:08;;;;;;;36.30;21.33;;;6.90;97.20;;;;;;4277035;33;20216;-63
2021/01/29 03:04:41;;;;;;;34.67;19.27;;;7.00;97.30;;;;;;4328041;33;20165;-63
2021/01/29 03:07:12;;;;;;;32.80;19.13;;;7.00;97.30;;;;;;4354122;32;20630;-64
2021/01/29 03:09:43;;;;;;;54.53;22.97;;;7.10;97.30;;;;;;4363512;32;20738;-63
2021/01/29 03:12:13;;;;;;;41.67;20.50;;;7.00;97.30;;;;;;4393096;32;20174;-64
2021/01/29 03:14:46;;;;;;;28.13;18.13;;;7.10;97.40;;;;;;4259366;32;5222087;-64
2021/01/29 03:17:19;;;;;;;33.23;19.30;;;7.20;97.40;;;;;;4416024;32;20508;-63
2021/01/29 03:19:53;;;;;;;33.43;19.13;;;7.20;97.30;;;;;;4420070;32;20224;-63
2021/01/29 03:22:24;;;;;;;41.23;20.73;;;7.20;97.30;;;;;;4416740;32;20235;-63
2021/01/29 03:24:55;;;;;;;29.27;17.63;;;7.30;97.40;;;;;;4406601;32;20174;-63
2021/01/29 03:27:25;;;;;;;28.90;17.57;;;7.30;97.30;;;;;;4414731;32;20171;-63
2021/01/29 03:30:01;;;;;;;29.70;17.60;;;7.30;97.40;;;;;;4419987;32;20529;-63
2021/01/29 03:32:28;;;;;;;26.03;16.57;;;7.30;97.30;;;;;;4418962;32;20174;-63
2021/01/29 03:35:02;;;;;;;46.33;21.40;;;7.30;97.40;;;;;;4419394;32;20163;-63
2021/01/29 03:37:34;;;;;;;31.50;18.07;;;7.40;97.40;;;;;;4414679;32;20192;-63
2021/01/29 03:40:03;;;;;;;27.27;16.97;;;7.40;97.40;;;;;;4415854;32;20155;-63
2021/01/29 03:42:34;;;;;;;33.33;17.90;;;7.50;97.40;;;;;;4415736;32;20179;-63
2021/01/29 03:45:13;;;;;;;50.93;22.60;;;7.50;97.30;;;;;;4414536;32;20164;-63
2021/01/29 03:47:53;;;;;;;26.87;16.80;;;7.50;97.30;;;;;;4421381;32;20214;-63
2021/01/29 03:50:29;;;;;;;41.50;20.00;;;7.50;97.40;;;;;;4417388;32;20203;-63
2021/01/29 03:53:06;;;;;;;67.57;26.50;;;7.60;97.40;;;;;;4417909;32;20524;-63
2021/01/29 03:55:43;;;;;;;39.47;21.07;;;7.60;97.40;;;;;;4422827;32;20195;-63
2021/01/29 03:58:15;;;;;;;36.70;19.70;;;7.60;97.30;;;;;;4408807;32;20173;-63
2021/01/29 04:00:48;;;;;;;48.93;24.13;;;7.60;97.30;;;;;;4416940;32;20206;-63
2021/01/29 04:03:21;;;;;;;34.40;19.07;;;7.60;97.30;;;;;;4420204;32;20249;-63
2021/01/29 04:05:57;;;;;;;36.47;19.33;;;7.60;97.30;;;;;;4416534;32;20164;-63
2021/01/29 04:08:29;;;;;;;35.47;19.83;;;7.70;97.40;;;;;;4421751;32;20215;-63
2021/01/29 04:11:00;;;;;;;36.23;19.30;;;7.70;97.40;;;;;;4424482;32;20212;-63
2021/01/29 04:13:32;;;;;;;29.83;17.77;;;7.70;97.30;;;;;;4422101;32;20198;-63
2021/01/29 04:15:59;;;;;;;39.30;20.57;;;7.70;97.30;;;;;;4421438;32;20159;-63
2021/01/29 04:18:29;;;;;;;59.07;24.63;;;7.80;97.30;;;;;;4417615;32;20227;-63
2021/01/29 04:21:01;;;;;;;33.17;19.47;;;7.80;97.40;;;;;;4419676;32;20610;-64
2021/01/29 04:23:32;;;;;;;36.10;19.93;;;7.80;97.40;;;;;;4415152;32;20155;-63
2021/01/29 04:26:02;;;;;;;32.93;19.90;;;7.80;97.40;;;;;;4414243;32;20215;-63
2021/01/29 04:28:33;;;;;;;28.57;17.80;;;7.90;97.50;;;;;;4412188;32;20178;-63
2021/01/29 04:31:03;;;;;;;33.37;19.70;;;7.90;97.50;;;;;;4419117;32;20548;-64
2021/01/29 04:33:33;;;;;;;34.80;20.73;;;8.00;97.50;;;;;;4421631;32;20171;-64
2021/01/29 04:36:05;;;;;;;31.10;19.37;;;8.00;97.50;;;;;;4421793;32;20175;-63
2021/01/29 04:38:40;;;;;;;35.83;19.80;;;8.10;97.50;;;;;;4421545;32;20163;-63
2021/01/29 04:41:19;;;;;;;46.97;22.33;;;8.20;97.50;;;;;;4423257;32;20163;-63
2021/01/29 04:44:03;;;;;;;46.40;23.20;;;8.10;97.50;;;;;;4419634;32;20198;-63
2021/01/29 04:47:05;;;;;;;42.90;22.20;;;8.10;97.60;;;;;;4420739;32;20213;-63
2021/01/29 04:49:43;;;;;;;65.77;26.60;;;8.10;97.60;;;;;;4352124;32;20168;-63
2021/01/29 04:53:06;;;;;;;58.37;25.87;;;8.30;97.70;;;;;;4352414;32;20164;-62
2021/01/29 04:56:12;;;;;;;45.37;23.43;;;8.20;97.60;;;;;;4301640;33;20214;-63
2021/01/29 04:58:56;;;;;;;53.43;24.90;;;8.30;97.60;;;;;;4320551;33;20257;-64
2021/01/29 05:01:47;;;;;;;65.53;26.73;;;8.30;97.60;;;;;;4314892;33;20183;-63
2021/01/29 05:04:44;;;;;;;54.47;24.33;;;8.30;97.60;;;;;;4309175;33;20364;-64
2021/01/29 05:10:55;;;;;;;52.07;22.87;;;8.40;97.80;;;;;;4300736;33;20543;-63
2021/01/29 05:13:52;;;;;;;45.43;20.97;;;8.50;97.90;;;;;;4310706;33;20285;-63
2021/01/29 05:16:55;;;;;;;57.87;23.60;;;8.50;97.90;;;;;;4312232;33;20244;-63
2021/01/29 05:19:56;;;;;;;47.17;20.63;;;8.60;98.10;;;;;;4276632;33;20221;-63
2021/01/29 05:22:41;;;;;;;40.33;19.60;;;8.60;98.20;;;;;;4295123;33;20187;-63
2021/01/29 05:25:34;;;;;;;38.63;18.30;;;8.70;98.30;;;;;;4285046;33;20199;-63
2021/01/29 05:28:17;;;;;;;28.10;15.27;;;8.70;98.30;;;;;;4342935;33;20172;-62
2021/01/29 05:31:07;;;;;;;30.80;15.13;;;8.80;98.30;;;;;;4357195;32;20218;-63
2021/01/29 05:33:54;;;;;;;28.83;15.53;;;8.80;98.20;;;;;;4374156;32;20273;-63
2021/01/29 05:36:32;;;;;;;24.23;12.47;;;8.80;98.20;;;;;;4375204;32;20241;-63
2021/01/29 05:39:12;;;;;;;22.67;11.83;;;8.80;98.20;;;;;;4372661;32;20237;-62
2021/01/29 05:42:11;;;;;;;21.57;11.07;;;8.80;98.30;;;;;;4371788;32;20232;-63
2021/01/29 05:45:17;;;;;;;17.47;10.53;;;8.70;98.20;;;;;;4372454;32;20239;-63
2021/01/29 05:48:16;;;;;;;18.87;9.93;;;8.70;98.20;;;;;;4328509;33;20688;-64
2021/01/29 05:51:03;;;;;;;15.53;8.33;;;8.70;98.20;;;;;;4329127;33;20236;-62
2021/01/29 05:53:45;;;;;;;15.03;8.30;;;8.70;98.20;;;;;;4328705;33;20169;-63
2021/01/29 05:56:22;;;;;;;11.90;6.90;;;8.70;98.20;;;;;;4350465;32;20168;-63
2021/01/29 05:59:10;;;;;;;14.27;8.37;;;8.70;98.20;;;;;;4360661;32;20247;-63
2021/01/29 06:02:24;;;;;;;12.83;5.93;;;8.70;98.20;;;;;;4365727;32;20182;-62
2021/01/29 06:05:25;;;;;;;11.70;6.13;;;8.60;98.20;;;;;;4368176;32;20191;-63
2021/01/29 06:08:16;;;;;;;12.63;6.07;;;8.60;98.10;;;;;;4369125;32;20171;-62
2021/01/29 06:11:03;;;;;;;11.10;5.77;;;8.60;98.10;;;;;;4364034;32;20227;-63
2021/01/29 06:13:56;;;;;;;12.50;4.83;;;8.60;98.20;;;;;;4371620;32;20167;-63
2021/01/29 06:17:05;;;;;;;6.93;5.37;;;8.60;98.50;;;;;;4370960;32;20311;-65
2021/01/29 06:19:57;;;;;;;13.13;5.03;;;8.60;98.20;;;;;;4367902;32;20224;-66
2021/01/29 06:22:51;;;;;;;10.57;6.03;;;8.60;98.20;;;;;;4372926;32;20323;-64
2021/01/29 06:25:34;;;;;;;12.37;5.37;;;8.60;98.20;;;;;;4415121;32;20229;-64
2021/01/29 06:28:27;;;;;;;15.00;6.30;;;8.60;98.20;;;;;;4419125;32;20163;-63
2021/01/29 06:31:22;;;;;;;21.13;7.90;;;8.50;98.10;;;;;;4420200;32;20175;-63
2021/01/29 06:34:22;;;;;;;22.20;7.90;;;8.50;98.10;;;;;;4417285;32;20174;-64
2021/01/29 06:36:58;;;;;;;17.40;7.17;;;8.40;98.10;;;;;;4353649;33;20263;-65
2021/01/29 06:39:46;;;;;;;16.43;6.87;;;8.50;98.20;;;;;;4359889;32;20184;-62
2021/01/29 06:42:29;;;;;;;20.00;7.63;;;8.50;98.20;;;;;;4355717;33;20188;-63
2021/01/29 06:45:20;;;;;;;19.27;8.73;;;8.50;98.20;;;;;;4357719;32;20192;-63
2021/01/29 06:48:17;;;;;;;16.57;7.60;;;8.50;98.20;;;;;;4355354;33;20231;-62
2021/01/29 06:51:02;;;;;;;15.43;7.90;;;8.50;98.20;;;;;;4295601;33;20697;-62
2021/01/29 06:53:44;;;;;;;20.90;8.73;;;8.50;98.20;;;;;;4297648;33;20221;-62
2021/01/29 06:56:27;;;;;;;19.00;9.67;;;8.50;98.20;;;;;;4297925;33;20606;-66
2021/01/29 06:59:42;;;;;;;17.33;9.83;;;8.50;98.20;;;;;;4297894;33;20255;-63
2021/01/29 07:02:41;;;;;;;20.57;9.27;;;8.50;98.30;;;;;;4291365;33;20178;-62
2021/01/29 07:05:21;;;;;;;20.90;9.13;;;8.50;98.30;;;;;;4289272;33;20178;-63
2021/01/29 07:08:10;;;;;;;17.93;6.93;;;8.50;98.20;;;;;;4286264;33;20174;-63
2021/01/29 07:10:58;;;;;;;11.93;6.43;;;8.60;98.20;;;;;;4294518;33;20183;-64
2021/01/29 07:13:42;;;;;;;11.33;3.73;;;8.60;98.20;;;;;;4324560;33;20165;-65
2021/01/29 07:16:23;;;;;;;17.67;4.43;;;8.60;98.20;;;;;;4355565;33;20283;-63
2021/01/29 07:19:18;;;;;;;8.87;3.87;;;8.50;98.20;;;;;;4350488;33;20314;-65
2021/01/29 07:22:10;;;;;;;11.33;3.40;;;8.60;98.10;;;;;;4347483;33;20306;-61
2021/01/29 07:24:44;;;;;;;8.57;3.63;;;8.60;98.10;;;;;;4355649;33;20583;-63
2021/01/29 07:27:22;;;;;;;10.30;3.20;;;8.60;98.10;;;;;;4368817;32;20202;-63
2021/01/29 07:30:16;;;;;;;11.50;3.50;;;8.60;98.10;;;;;;4409537;32;20239;-62
2021/01/29 07:32:47;;;;;;;12.23;4.13;;;8.60;98.10;;;;;;4415442;32;20211;-64
2021/01/29 07:35:21;;;;;;;15.87;4.60;;;8.60;98.20;;;;;;4416581;32;20179;-64
2021/01/29 07:38:10;;;;;;;16.00;4.63;;;8.60;98.20;;;;;;4419379;32;20217;-66
2021/01/29 07:40:50;;;;;;;10.30;4.63;;;8.70;98.20;;;;;;4419226;32;20182;-62
2021/01/29 07:43:47;;;;;;;15.20;5.97;;;8.70;98.20;;;;;;4420076;32;20172;-62
2021/01/29 07:46:28;;;;;;;15.13;5.10;;;8.80;98.20;;;;;;4421022;32;20191;-63
2021/01/29 07:49:11;;;;;;;17.93;5.87;;;8.80;98.20;;;;;;4421781;32;20163;-63
2021/01/29 07:51:45;;;;;;;25.00;5.57;;;8.80;98.10;;;;;;4418502;32;20223;-62
2021/01/29 07:54:52;;;;;;;25.20;6.67;;;8.80;98.10;;;;;;4419552;32;20158;-63
2021/01/29 07:57:26;;;;;;;28.33;5.37;;;8.90;98.10;;;;;;4419231;32;20193;-64
2021/01/29 08:00:16;;;;;;;24.20;5.47;;;8.90;98.00;;;;;;4418558;32;20172;-64
2021/01/29 08:03:06;;;;;;;29.83;6.23;;;8.90;97.80;;;;;;4411200;32;20163;-64
2021/01/29 08:05:38;;;;;;;30.23;6.07;;;8.90;97.80;;;;;;4416912;32;20171;-66
2021/01/29 08:08:09;;;;;;;34.07;7.27;;;8.90;97.80;;;;;;4421551;32;20677;-67
2021/01/29 08:10:38;;;;;;;19.93;5.17;;;8.80;97.70;;;;;;4421586;32;20178;-64
2021/01/29 08:13:14;;;;;;;42.87;7.13;;;8.90;97.70;;;;;;4419590;32;20159;-65
2021/01/29 08:15:55;;;;;;;34.97;7.20;;;8.90;97.70;;;;;;4419476;32;20621;-63
2021/01/29 08:18:56;;;;;;;23.17;6.07;;;8.80;97.60;;;;;;4420254;32;20184;-65
2021/01/29 08:22:07;;;;;;;23.03;5.30;;;8.80;97.60;;;;;;4420270;32;20159;-63
2021/01/29 08:25:03;;;;;;;34.87;6.20;;;8.80;97.60;;;;;;4417950;32;20255;-64
2021/01/29 08:28:11;;;;;;;30.23;5.87;;;8.80;97.70;;;;;;4355347;32;20617;-66
2021/01/29 08:31:01;;;;;;;32.63;6.30;;;8.80;97.80;;;;;;4356022;32;20693;-64
2021/01/29 08:34:04;;;;;;;30.03;7.50;;;8.70;97.70;;;;;;4359615;32;20731;-64
2021/01/29 08:36:50;;;;;;;44.07;7.90;;;8.70;97.80;;;;;;4359085;32;20188;-64
2021/01/29 08:39:23;;;;;;;39.00;8.13;;;8.60;97.80;;;;;;4353690;32;20694;-67
2021/01/29 08:42:01;;;;;;;39.87;8.83;;;8.80;97.90;;;;;;4358680;32;20184;-64
2021/01/29 08:45:09;;;;;;;40.33;7.80;;;8.70;97.80;;;;;;4355720;32;20207;-64
2021/01/29 08:47:54;;;;;;;47.57;8.93;;;8.70;97.70;;;;;;4359161;32;20428;-65
2021/01/29 08:50:53;;;;;;;41.50;8.23;;;8.70;97.50;;;;;;4355353;32;20164;-63
2021/01/29 08:53:49;;;;;;;48.30;10.07;;;8.70;97.50;;;;;;4295860;33;20225;-65
2021/01/29 08:56:25;;;;;;;38.17;8.17;;;8.60;97.60;;;;;;4296505;33;20167;-65
2021/01/29 08:58:59;;;;;;;46.97;10.40;;;8.60;97.60;;;;;;4295513;33;20196;-66
2021/01/29 09:01:32;;;;;;;60.67;9.30;;;8.60;97.60;;;;;;4294296;33;20884;-64
2021/01/29 09:04:03;;;;;;;52.57;10.17;;;8.60;97.60;;;;;;4322722;33;20193;-64
2021/01/29 09:06:39;;;;;;;47.97;9.73;;;8.60;97.60;;;;;;4354012;33;20598;-64
2021/01/29 09:09:08;;;;;;;57.47;9.47;;;8.60;97.30;;;;;;4356423;32;20191;-64
2021/01/29 09:11:41;;;;;;;55.03;9.10;;;8.60;97.20;;;;;;4355964;32;20232;-64
2021/01/29 09:14:13;;;;;;;69.23;10.00;;;8.60;97.50;;;;;;4355199;32;20244;-67
2021/01/29 09:16:42;;;;;;;54.43;8.60;;;8.60;97.20;;;;;;4350659;33;20172;-63
2021/01/29 09:19:13;;;;;;;60.60;10.47;;;8.50;96.90;;;;;;4355564;33;20275;-65
2021/01/29 09:21:51;;;;;;;54.20;9.67;;;8.60;96.70;;;;;;4355650;32;20606;-65
2021/01/29 09:24:24;;;;;;;54.43;9.30;;;8.60;96.70;;;;;;4348518;32;20234;-66
2021/01/29 09:27:19;;;;;;;45.37;8.87;;;8.60;96.60;;;;;;4345623;33;20173;-66
2021/01/29 09:29:53;;;;;;;50.00;8.93;;;8.60;96.40;;;;;;4364289;32;20241;-65
2021/01/29 09:32:51;;;;;;;42.20;7.57;;;8.70;95.80;;;;;;4408976;32;20674;-67
2021/01/29 09:35:26;;;;;;;50.30;8.90;;;8.70;95.90;;;;;;4411198;32;20234;-65
2021/01/29 09:37:54;;;;;;;51.20;10.10;;;8.70;95.70;;;;;;4412270;32;20216;-65
2021/01/29 09:40:26;;;;;;;46.10;8.93;;;8.60;95.80;;;;;;4410633;32;20354;-66
2021/01/29 09:43:08;;;;;;;44.83;7.63;;;8.80;95.80;;;;;;4409215;32;20164;-67
2021/01/29 09:45:38;;;;;;;44.13;9.20;;;8.80;95.70;;;;;;4410541;32;20831;-66
2021/01/29 09:48:10;;;;;;;43.17;7.57;;;8.90;95.40;;;;;;4409818;32;20194;-67
2021/01/29 09:50:38;;;;;;;40.57;7.63;;;9.00;95.10;;;;;;4410547;32;20233;-66
2021/01/29 09:53:25;;;;;;;57.83;9.33;;;9.00;95.10;;;;;;4412721;32;20277;-66
2021/01/29 09:56:02;;;;;;;53.47;9.73;;;9.00;94.80;;;;;;4411061;32;20160;-66
2021/01/29 09:58:36;;;;;;;43.33;8.97;;;9.00;94.80;;;;;;4409851;32;20165;-65
2021/01/29 10:01:07;;;;;;;39.10;7.20;;;9.10;94.50;;;;;;4408638;32;20159;-66
2021/01/29 10:03:39;;;;;;;40.83;7.30;;;9.20;94.60;;;;;;4409228;32;20518;-65
2021/01/29 10:06:09;;;;;;;42.07;7.73;;;9.20;94.30;;;;;;4409534;32;20183;-67
2021/01/29 10:08:39;;;;;;;37.53;7.10;;;9.30;94.10;;;;;;4408645;32;20222;-66
2021/01/29 10:11:12;;;;;;;45.93;8.10;;;9.30;94.10;;;;;;4409776;32;20163;-67
2021/01/29 10:14:03;;;;;;;49.27;7.87;;;9.40;94.00;;;;;;4408182;32;20187;-66
2021/01/29 10:16:44;;;;;;;44.20;8.17;;;9.30;93.90;;;;;;4406362;32;20171;-67
2021/01/29 10:19:30;;;;;;;51.47;7.40;;;9.30;94.10;;;;;;4409863;32;20144;-67
2021/01/29 10:22:39;;;;;;;43.13;8.97;;;9.40;93.90;;;;;;4408325;32;20513;-66
2021/01/29 10:25:17;;;;;;;44.10;7.50;;;9.50;93.90;;;;;;4339077;33;20182;-68
2021/01/29 10:27:49;;;;;;;44.67;7.70;;;9.50;93.80;;;;;;4334565;33;20384;-66
2021/01/29 10:30:23;;;;;;;37.63;7.03;;;9.50;93.60;;;;;;4337069;33;20161;-68
2021/01/29 10:32:57;;;;;;;39.67;9.17;;;9.40;93.70;;;;;;4339276;33;20249;-67
2021/01/29 10:35:30;;;;;;;37.03;6.80;;;9.50;93.60;;;;;;4337390;33;20267;-66
2021/01/29 10:38:03;;;;;;;38.57;6.80;;;9.60;93.90;;;;;;4338776;33;20184;-66
2021/01/29 10:40:34;;;;;;;41.73;7.43;;;9.80;93.80;;;;;;4336309;33;20574;-67
2021/01/29 10:43:19;;;;;;;41.37;6.77;;;9.70;93.50;;;;;;4335863;33;20587;-67
2021/01/29 10:45:55;;;;;;;35.67;7.00;;;9.80;93.40;;;;;;4336716;33;20178;-67
2021/01/29 10:48:55;;;;;;;44.63;7.73;;;9.90;93.10;;;;;;4335447;33;20260;-66
2021/01/29 10:51:36;;;;;;;34.80;7.20;;;10.00;93.10;;;;;;4328852;33;20186;-67
2021/01/29 10:54:05;;;;;;;38.03;7.23;;;10.10;92.90;;;;;;4339986;33;20167;-67
2021/01/29 10:56:41;;;;;;;35.67;6.50;;;10.30;92.70;;;;;;4336162;33;20512;-67
2021/01/29 10:59:16;;;;;;;32.77;6.27;;;10.50;92.40;;;;;;4337923;33;20802;-67
2021/01/29 11:01:46;;;;;;;33.93;5.87;;;10.80;92.00;;;;;;4376573;32;20674;-66
2021/01/29 11:04:21;;;;;;;37.13;6.80;;;10.80;91.40;;;;;;4410936;32;20157;-67
2021/01/29 11:06:53;;;;;;;41.67;7.63;;;10.80;91.40;;;;;;4413276;32;20207;-67
2021/01/29 11:09:25;;;;;;;39.40;6.27;;;10.80;91.40;;;;;;4407232;32;20189;-67
2021/01/29 11:12:18;;;;;;;33.97;7.27;;;10.90;92.00;;;;;;4410893;32;20232;-66
2021/01/29 11:14:52;;;;;;;36.57;6.67;;;10.80;91.60;;;;;;4413605;32;20146;-67
2021/01/29 11:17:23;;;;;;;38.30;7.43;;;10.60;91.50;;;;;;4417121;32;20238;-67
2021/01/29 11:19:52;;;;;;;35.27;7.20;;;10.50;92.00;;;;;;4413366;32;20167;-68
2021/01/29 11:22:39;;;;;;;36.70;7.10;;;10.50;91.80;;;;;;4414797;32;20241;-67
2021/01/29 11:25:18;;;;;;;35.67;6.60;;;10.30;92.10;;;;;;4412907;32;20258;-67
2021/01/29 11:27:54;;;;;;;34.17;7.53;;;10.40;92.40;;;;;;4416222;32;20277;-67
2021/01/29 11:30:27;;;;;;;44.60;6.03;;;10.30;92.20;;;;;;4413940;32;20144;-66
2021/01/29 11:32:57;;;;;;;33.70;6.93;;;10.10;92.50;;;;;;4411230;32;20251;-67
2021/01/29 11:35:42;;;;;;;37.23;7.20;;;10.00;92.60;;;;;;4418257;32;20475;-66
2021/01/29 11:38:34;;;;;;;35.73;5.83;;;10.00;92.40;;;;;;4411784;32;20161;-67
2021/01/29 11:41:16;;;;;;;31.37;6.10;;;9.90;92.60;;;;;;4343385;32;20668;-69
2021/01/29 11:43:47;;;;;;;38.63;6.30;;;10.00;92.80;;;;;;4342679;33;20264;-67
2021/01/29 11:46:22;;;;;;;35.67;5.93;;;9.90;92.30;;;;;;4344133;33;20265;-67
2021/01/29 11:48:53;;;;;;;32.97;6.43;;;10.00;92.30;;;;;;4341811;33;20271;-68
2021/01/29 11:51:29;;;;;;;28.70;6.43;;;10.20;91.80;;;;;;4342436;33;20708;-67
2021/01/29 11:54:03;;;;;;;29.07;6.47;;;10.20;91.80;;;;;;4341281;33;20159;-67
2021/01/29 11:56:35;;;;;;;30.83;6.17;;;10.20;92.00;;;;;;4342884;33;20202;-67
2021/01/29 11:59:07;;;;;;;34.20;5.73;;;10.10;92.00;;;;;;4343373;33;20222;-67
2021/01/29 12:01:39;;;;;;;28.47;6.50;;;10.00;91.90;;;;;;4342446;33;20252;-68
2021/01/29 12:04:22;;;;;;;20.80;5.07;;;10.10;92.10;;;;;;4342394;33;20175;-67
2021/01/29 12:06:56;;;;;;;34.67;6.43;;;10.00;92.40;;;;;;4342461;33;20258;-68
2021/01/29 12:09:35;;;;;;;34.30;6.20;;;10.00;92.40;;;;;;4343506;33;20723;-68
2021/01/29 12:12:06;;;;;;;28.40;5.53;;;9.90;92.20;;;;;;4343583;33;20196;-69
2021/01/29 12:15:02;;;;;;;37.33;6.07;;;9.80;92.80;;;;;;4374197;32;20613;-68
2021/01/29 12:17:31;;;;;;;29.67;4.97;;;9.70;92.70;;;;;;4406809;32;20212;-68
2021/01/29 12:20:01;;;;;;;25.97;5.53;;;9.70;93.10;;;;;;4399896;32;20227;-68
2021/01/29 12:22:32;;;;;;;31.93;6.13;;;9.70;93.50;;;;;;4405408;32;20186;-68
2021/01/29 12:25:32;;;;;;;29.33;5.87;;;9.70;93.20;;;;;;4399879;32;20165;-69
2021/01/29 12:28:08;;;;;;;31.43;5.87;;;9.60;93.30;;;;;;4342173;33;20254;-69
2021/01/29 12:30:41;;;;;;;25.83;5.60;;;9.80;93.60;;;;;;4341508;33;20597;-69
2021/01/29 12:33:12;;;;;;;26.47;6.13;;;9.60;93.80;;;;;;4341400;33;20640;-69
2021/01/29 12:35:47;;;;;;;28.33;5.73;;;9.50;93.50;;;;;;4341479;33;20175;-69
2021/01/29 12:38:21;;;;;;;25.43;5.30;;;9.60;93.80;;;;;;4340566;33;20266;-69
2021/01/29 12:40:52;;;;;;;23.17;5.23;;;9.50;93.80;;;;;;4343448;33;20423;-69
2021/01/29 12:43:37;;;;;;;24.87;5.60;;;9.60;93.70;;;;;;4339969;33;20498;-69
2021/01/29 12:46:10;;;;;;;24.43;6.50;;;9.60;93.60;;;;;;4340901;33;20355;-69
2021/01/29 12:48:47;;;;;;;28.73;5.27;;;9.70;93.70;;;;;;4341245;33;20353;-69
2021/01/29 12:51:18;;;;;;;34.83;6.43;;;9.90;93.20;;;;;;4341731;33;20222;-69
2021/01/29 12:53:51;;;;;;;32.23;5.73;;;10.00;92.90;;;;;;4342348;33;20271;-69
2021/01/29 12:56:45;;;;;;;26.97;4.93;;;10.00;92.70;;;;;;4344547;33;20627;-69
2021/01/29 12:59:27;;;;;;;27.57;5.03;;;10.00;92.70;;;;;;4338751;33;20163;-68
2021/01/29 13:02:03;;;;;;;30.50;5.20;;;10.00;92.60;;;;;;4341636;33;20207;-69
2021/01/29 13:04:39;;;;;;;30.97;4.70;;;9.90;92.50;;;;;;4360999;32;20164;-68
2021/01/29 13:07:09;;;;;;;37.30;5.17;;;10.00;93.30;;;;;;4404306;32;20147;-68
2021/01/29 13:09:47;;;;;;;23.27;5.17;;;10.10;92.50;;;;;;4404400;32;20213;-68
2021/01/29 13:12:29;;;;;;;23.70;4.80;;;10.10;92.50;;;;;;4404179;32;20287;-68
2021/01/29 13:15:10;;;;;;;20.10;5.37;;;10.10;92.40;;;;;;4404710;32;20535;-68
2021/01/29 13:17:40;;;;;;;25.63;5.50;;;10.20;92.40;;;;;;4404850;32;20200;-68
2021/01/29 13:20:12;;;;;;;25.07;5.13;;;10.30;92.00;;;;;;4405014;32;20223;-68
2021/01/29 13:22:45;;;;;;;25.13;4.40;;;10.20;91.70;;;;;;4402120;32;20157;-68
2021/01/29 13:25:21;;;;;;;34.03;5.87;;;10.30;92.10;;;;;;4404310;32;20156;-69
2021/01/29 13:28:03;;;;;;;24.63;5.83;;;10.50;91.90;;;;;;4404450;32;20181;-68
2021/01/29 13:30:34;;;;;;;24.77;5.23;;;10.70;91.00;;;;;;4405392;32;20168;-68
2021/01/29 13:33:10;;;;;;;27.63;4.97;;;10.60;91.10;;;;;;4403225;32;20192;-69
2021/01/29 13:35:37;;;;;;;22.63;4.73;;;10.40;91.40;;;;;;4402819;32;20144;-69
2021/01/29 13:38:14;;;;;;;26.90;5.50;;;10.40;91.60;;;;;;4404999;32;20656;-68
2021/01/29 13:40:41;;;;;;;23.43;5.63;;;10.40;91.50;;;;;;4403137;32;20152;-69
2021/01/29 13:43:26;;;;;;;23.20;5.43;;;10.40;91.70;;;;;;4405440;32;20218;-69